createdAt,value
2019-04-27T00:02:36.672Z,18.10
2019-04-27T00:05:20.164Z,18.67
2019-04-27T00:07:59.243Z,17.82
2019-04-27T00:13:15.256Z,17.27
2019-04-27T00:16:09.353Z,17.30
2019-04-27T00:21:29.496Z,17.15
2019-04-27T00:23:57.351Z,16.90
2019-04-27T00:26:24.189Z,17.17
2019-04-27T00:28:51.028Z,17.23
2019-04-27T00:31:17.867Z,17.20
2019-04-27T00:33:44.712Z,17.73
2019-04-27T00:36:15.987Z,18.30
2019-04-27T00:38:44.632Z,18.42
2019-04-27T00:41:14.230Z,19.73
2019-04-27T00:43:42.741Z,18.35
2019-04-27T00:46:10.085Z,19.55
2019-04-27T00:48:36.925Z,19.42
2019-04-27T00:51:04.367Z,18.55
2019-04-27T00:53:31.420Z,27.45
2019-04-27T00:59:13.728Z,34.60
2019-04-27T01:01:43.604Z,23.77
2019-04-27T01:04:15.508Z,23.35
2019-04-27T01:06:43.755Z,26.35
2019-04-27T01:09:13.439Z,25.77
2019-04-27T01:14:07.137Z,23.92
2019-04-27T01:16:33.991Z,30.45
2019-04-27T01:19:00.937Z,31.62
2019-04-27T01:21:29.420Z,53.10
2019-04-27T01:23:56.355Z,33.35
2019-04-27T01:26:25.032Z,36.55
2019-04-27T01:28:53.802Z,29.77
2019-04-27T01:31:22.835Z,23.67
2019-04-27T01:33:49.711Z,24.82
2019-04-27T01:36:16.656Z,25.23
2019-04-27T01:38:43.519Z,23.95
2019-04-27T01:41:10.363Z,24.30
2019-04-27T01:43:38.704Z,23.92
2019-04-27T01:46:05.651Z,20.97
2019-04-27T01:48:32.526Z,20.90
2019-04-27T01:50:59.443Z,20.62
2019-04-27T01:53:26.216Z,21.00
2019-04-27T01:56:06.150Z,21.23
2019-04-27T01:58:33.108Z,21.68
2019-04-27T02:01:19.932Z,21.23
2019-04-27T02:03:48.950Z,19.98
2019-04-27T02:06:15.927Z,22.20
2019-04-27T02:08:42.889Z,21.33
2019-04-27T02:11:10.957Z,21.40
2019-04-27T02:13:38.856Z,20.75
2019-04-27T02:16:06.015Z,19.52
2019-04-27T02:18:37.614Z,20.72
2019-04-27T02:21:01.541Z,22.05
2019-04-27T02:23:29.332Z,23.60
2019-04-27T02:25:56.348Z,27.48
2019-04-27T02:28:24.986Z,37.60
2019-04-27T02:31:05.828Z,42.78
2019-04-27T02:36:26.358Z,22.17
2019-04-27T02:38:53.087Z,25.45
2019-04-27T02:41:20.066Z,23.02
2019-04-27T02:43:51.503Z,22.90
2019-04-27T02:46:20.008Z,23.42
2019-04-27T02:48:59.012Z,28.38
2019-04-27T02:51:17.337Z,20.57
2019-04-27T02:53:54.024Z,26.73
2019-04-27T02:56:21.466Z,26.35
2019-04-27T02:58:49.684Z,24.95
2019-04-27T03:01:16.885Z,26.77
2019-04-27T03:03:43.720Z,25.92
2019-04-27T03:06:10.552Z,26.60
2019-04-27T03:08:39.429Z,25.15
2019-04-27T03:11:05.951Z,24.60
2019-04-27T03:13:40.544Z,24.37
2019-04-27T03:16:26.139Z,22.62
2019-04-27T03:22:00.558Z,29.82
2019-04-27T03:24:35.023Z,26.57
2019-04-27T03:27:03.576Z,27.75
2019-04-27T03:29:30.703Z,27.63
2019-04-27T03:32:01.601Z,27.37
2019-04-27T03:34:26.428Z,27.42
2019-04-27T03:36:53.312Z,27.45
2019-04-27T03:39:20.157Z,27.45
2019-04-27T03:41:50.185Z,30.05
2019-04-27T03:44:15.683Z,28.77
2019-04-27T03:46:42.573Z,30.82
2019-04-27T03:49:09.868Z,32.85
2019-04-27T03:51:41.629Z,36.95
2019-04-27T03:54:26.652Z,37.90
2019-04-27T03:56:55.326Z,38.98
2019-04-27T03:59:24.055Z,37.67
2019-04-27T04:01:50.900Z,34.25
2019-04-27T04:04:19.546Z,30.65
2019-04-27T04:06:46.535Z,26.12
2019-04-27T04:09:29.619Z,24.27
2019-04-27T04:11:59.161Z,24.90
2019-04-27T04:14:26.896Z,25.35
2019-04-27T04:17:15.449Z,28.02
2019-04-27T04:19:54.471Z,27.57
2019-04-27T04:22:11.131Z,27.85
2019-04-27T04:24:39.714Z,27.15
2019-04-27T04:27:06.684Z,27.13
2019-04-27T04:29:33.621Z,28.02
2019-04-27T04:32:00.657Z,28.32
2019-04-27T04:34:29.710Z,27.62
2019-04-27T04:36:56.072Z,25.32
2019-04-27T04:39:22.900Z,24.32
2019-04-27T04:41:51.572Z,25.65
2019-04-27T04:44:20.477Z,24.50
2019-04-27T04:46:55.291Z,24.72
2019-04-27T04:49:22.282Z,25.02
2019-04-27T04:51:50.410Z,24.02
2019-04-27T04:54:19.882Z,24.07
2019-04-27T04:56:46.463Z,23.73
2019-04-27T04:59:13.325Z,25.12
2019-04-27T05:01:40.261Z,24.47
2019-04-27T05:04:09.009Z,25.32
2019-04-27T05:06:35.991Z,25.62
2019-04-27T05:09:04.357Z,24.80
2019-04-27T05:11:31.588Z,25.32
2019-04-27T05:13:59.371Z,22.62
2019-04-27T05:16:28.656Z,22.30
2019-04-27T05:18:55.633Z,21.65
2019-04-27T05:24:10.716Z,20.65
2019-04-27T05:26:39.586Z,20.20
2019-04-27T05:29:06.445Z,20.15
2019-04-27T05:31:33.288Z,19.98
2019-04-27T05:34:00.256Z,19.48
2019-04-27T05:36:27.227Z,18.40
2019-04-27T05:38:54.119Z,18.45
2019-04-27T05:41:20.894Z,19.67
2019-04-27T05:43:59.203Z,19.17
2019-04-27T05:46:31.274Z,19.60
2019-04-27T05:48:59.913Z,20.20
2019-04-27T05:51:36.721Z,18.12
2019-04-27T05:53:55.822Z,19.35
2019-04-27T05:56:22.688Z,18.60
2019-04-27T05:58:51.258Z,18.07
2019-04-27T06:01:19.573Z,18.43
2019-04-27T06:03:46.725Z,18.25
2019-04-27T06:06:13.596Z,18.07
2019-04-27T06:08:40.328Z,19.55
2019-04-27T06:11:07.096Z,18.00
2019-04-27T06:13:33.929Z,18.50
2019-04-27T06:16:00.789Z,17.12
2019-04-27T06:18:29.161Z,17.80
2019-04-27T06:20:56.191Z,17.47
2019-04-27T06:23:23.008Z,18.05
2019-04-27T06:25:49.992Z,16.87
2019-04-27T06:28:16.728Z,17.30
2019-04-27T06:30:43.599Z,17.23
2019-04-27T06:33:10.584Z,16.00
2019-04-27T06:35:57.262Z,16.10
2019-04-27T06:38:24.136Z,16.90
2019-04-27T06:40:51.100Z,16.55
2019-04-27T06:43:18.885Z,16.30
2019-04-27T06:45:45.975Z,15.95
2019-04-27T06:48:12.732Z,16.93
2019-04-27T06:50:39.575Z,15.45
2019-04-27T06:53:06.532Z,16.23
2019-04-27T06:55:33.422Z,15.70
2019-04-27T06:58:00.365Z,16.87
2019-04-27T07:00:28.768Z,16.07
2019-04-27T07:02:55.778Z,16.13
2019-04-27T07:05:22.639Z,16.50
2019-04-27T07:07:49.387Z,14.05
2019-04-27T07:10:16.351Z,15.38
2019-04-27T07:12:43.172Z,16.45
2019-04-27T07:15:10.021Z,15.85
2019-04-27T07:17:38.681Z,16.23
2019-04-27T07:20:05.517Z,15.65
2019-04-27T07:22:32.363Z,15.63
2019-04-27T07:24:59.336Z,16.15
2019-04-27T07:27:26.342Z,16.25
2019-04-27T07:29:53.665Z,15.28
2019-04-27T07:32:20.719Z,14.53
2019-04-27T07:34:47.582Z,15.75
2019-04-27T07:37:14.448Z,14.18
2019-04-27T07:39:41.423Z,16.07
2019-04-27T07:42:08.590Z,13.58
2019-04-27T07:44:38.951Z,15.13
2019-04-27T07:47:16.547Z,13.53
2019-04-27T07:49:44.488Z,13.35
2019-04-27T07:52:24.577Z,15.15
2019-04-27T07:54:51.552Z,15.08
2019-04-27T07:57:19.734Z,12.88
2019-04-27T07:59:46.987Z,13.98
2019-04-27T08:02:13.827Z,14.25
2019-04-27T08:04:40.583Z,14.80
2019-04-27T08:07:09.030Z,14.45
2019-04-27T08:09:35.988Z,14.45
2019-04-27T08:12:02.925Z,14.95
2019-04-27T08:14:29.788Z,15.63
2019-04-27T08:16:58.573Z,16.17
2019-04-27T08:19:25.424Z,16.85
2019-04-27T08:21:52.389Z,15.95
2019-04-27T08:24:19.508Z,14.13
2019-04-27T08:26:54.204Z,14.15
2019-04-27T08:29:39.380Z,14.30
2019-04-27T08:32:09.721Z,14.28
2019-04-27T08:34:39.685Z,14.15
2019-04-27T08:37:08.746Z,14.10
2019-04-27T08:39:35.671Z,14.50
2019-04-27T08:42:02.437Z,14.53
2019-04-27T08:44:31.620Z,15.93
2019-04-27T08:46:59.538Z,14.68
2019-04-27T08:49:26.658Z,15.18
2019-04-27T08:51:59.147Z,15.48
2019-04-27T08:54:22.168Z,14.18
2019-04-27T08:56:49.414Z,13.62
2019-04-27T08:59:16.668Z,14.07
2019-04-27T09:01:43.636Z,13.60
2019-04-27T09:04:11.290Z,13.38
2019-04-27T09:06:40.605Z,14.28
2019-04-27T09:09:14.900Z,13.50
2019-04-27T09:11:46.144Z,14.00
2019-04-27T09:14:14.812Z,13.70
2019-04-27T09:16:57.947Z,14.05
2019-04-27T09:19:20.216Z,11.93
2019-04-27T09:22:13.388Z,12.30
2019-04-27T09:24:34.240Z,13.00
2019-04-27T09:27:01.185Z,13.08
2019-04-27T09:29:29.862Z,13.08
2019-04-27T09:31:56.576Z,12.35
2019-04-27T09:34:23.495Z,12.78
2019-04-27T09:36:50.333Z,12.78
2019-04-27T09:39:17.291Z,12.53
2019-04-27T09:41:44.127Z,12.60
2019-04-27T09:44:11.013Z,11.88
2019-04-27T09:46:37.868Z,11.95
2019-04-27T09:49:04.819Z,10.48
2019-04-27T09:51:31.652Z,9.75
2019-04-27T09:53:58.626Z,11.60
2019-04-27T09:56:26.142Z,11.95
2019-04-27T09:58:53.141Z,10.88
2019-04-27T10:01:20.088Z,8.10
2019-04-27T10:03:47.048Z,10.13
2019-04-27T10:06:14.081Z,9.23
2019-04-27T10:08:40.844Z,9.98
2019-04-27T10:11:07.836Z,9.70
2019-04-27T10:13:36.396Z,10.43
2019-04-27T10:16:04.044Z,9.55
2019-04-27T10:18:31.001Z,10.50
2019-04-27T10:21:01.904Z,10.43
2019-04-27T10:23:26.732Z,10.48
2019-04-27T10:25:53.468Z,10.00
2019-04-27T10:28:20.216Z,10.35
2019-04-27T10:30:47.050Z,9.98
2019-04-27T10:33:15.975Z,10.78
2019-04-27T10:35:42.423Z,10.10
2019-04-27T10:38:09.723Z,10.80
2019-04-27T10:40:36.679Z,9.93
2019-04-27T10:43:06.050Z,10.20
2019-04-27T10:45:32.938Z,9.33
2019-04-27T10:48:01.085Z,9.45
2019-04-27T10:50:27.925Z,9.23
2019-04-27T10:52:56.774Z,8.63
2019-04-27T10:55:23.550Z,8.50
2019-04-27T10:57:50.511Z,9.45
2019-04-27T11:00:19.760Z,8.75
2019-04-27T11:05:21.939Z,8.78
2019-04-27T11:07:50.155Z,10.40
2019-04-27T11:10:17.082Z,9.58
2019-04-27T11:12:45.794Z,9.08
2019-04-27T11:15:12.812Z,9.90
2019-04-27T11:17:41.473Z,9.13
2019-04-27T11:20:08.233Z,9.58
2019-04-27T11:22:36.404Z,8.90
2019-04-27T11:25:06.324Z,9.13
2019-04-27T11:27:33.194Z,8.68
2019-04-27T11:30:00.080Z,9.98
2019-04-27T11:32:26.972Z,15.65
2019-04-27T11:35:05.737Z,18.02
2019-04-27T11:37:37.387Z,29.85
2019-04-27T11:40:09.589Z,28.30
2019-04-27T11:42:36.798Z,18.32
2019-04-27T11:45:08.005Z,21.45
2019-04-27T11:47:36.383Z,21.35
2019-04-27T11:50:06.304Z,19.80
2019-04-27T11:52:33.236Z,23.10
2019-04-27T11:54:59.987Z,20.40
2019-04-27T11:57:26.935Z,21.25
2019-04-27T11:59:53.882Z,22.85
2019-04-27T12:02:20.731Z,22.32
2019-04-27T12:04:47.591Z,19.82
2019-04-27T12:07:14.576Z,18.17
2019-04-27T12:09:41.441Z,18.20
2019-04-27T12:12:13.583Z,17.75
2019-04-27T12:14:37.124Z,18.07
2019-04-27T12:17:03.960Z,16.10
2019-04-27T12:19:30.860Z,16.45
2019-04-27T12:21:57.809Z,14.80
2019-04-27T12:24:24.608Z,13.58
2019-04-27T12:27:00.916Z,13.05
2019-04-27T12:32:15.617Z,13.85
2019-04-27T12:34:42.543Z,13.80
2019-04-27T12:37:09.288Z,15.30
2019-04-27T12:39:36.248Z,17.62
2019-04-27T12:42:03.189Z,16.37
2019-04-27T12:44:30.043Z,18.95
2019-04-27T12:47:02.288Z,15.63
2019-04-27T12:49:26.178Z,16.25
2019-04-27T12:51:53.353Z,17.55
2019-04-27T12:54:26.208Z,16.37
2019-04-27T12:56:55.859Z,16.02
2019-04-27T12:59:44.023Z,15.80
2019-04-27T13:02:10.643Z,15.70
2019-04-27T13:04:38.397Z,16.27
2019-04-27T13:07:05.983Z,15.20
2019-04-27T13:09:33.143Z,15.05
2019-04-27T13:12:00.002Z,15.55
2019-04-27T13:14:26.844Z,13.60
2019-04-27T13:16:53.681Z,13.65
2019-04-27T13:19:20.688Z,15.75
2019-04-27T13:22:07.264Z,16.90
2019-04-27T13:24:35.592Z,17.77
2019-04-27T13:27:02.880Z,17.62
2019-04-27T13:29:29.738Z,18.25
2019-04-27T13:31:57.733Z,18.40
2019-04-27T13:34:24.736Z,18.50
2019-04-27T13:37:30.061Z,17.87
2019-04-27T13:40:06.060Z,18.57
2019-04-27T13:43:03.795Z,19.17
2019-04-27T13:45:32.671Z,22.07
2019-04-27T13:48:17.769Z,18.98
2019-04-27T13:53:28.748Z,14.07
2019-04-27T13:56:15.011Z,14.10
2019-04-27T13:58:43.800Z,13.20
2019-04-27T14:01:10.864Z,13.60
2019-04-27T14:03:38.149Z,15.13
2019-04-27T14:06:05.032Z,13.15
2019-04-27T14:08:31.881Z,11.35
2019-04-27T14:11:01.090Z,14.20
2019-04-27T14:13:28.669Z,12.33
2019-04-27T14:15:55.899Z,12.13
2019-04-27T14:18:22.991Z,11.68
2019-04-27T14:20:49.768Z,12.20
2019-04-27T14:23:18.818Z,12.85
2019-04-27T14:25:46.092Z,12.30
2019-04-27T14:28:12.932Z,11.50
2019-04-27T14:30:40.092Z,12.65
2019-04-27T14:33:08.484Z,20.85
2019-04-27T14:35:35.700Z,15.00
2019-04-27T14:38:02.640Z,13.85
2019-04-27T14:40:29.610Z,11.70
2019-04-27T14:42:56.657Z,12.90
2019-04-27T14:45:23.635Z,12.98
2019-04-27T14:47:50.369Z,13.28
2019-04-27T14:50:18.713Z,15.93
2019-04-27T14:52:59.117Z,15.05
2019-04-27T14:55:26.046Z,31.87
2019-04-27T14:57:52.901Z,14.35
2019-04-27T15:00:21.570Z,15.00
2019-04-27T15:02:49.036Z,16.27
2019-04-27T15:05:16.299Z,14.68
2019-04-27T15:07:44.556Z,14.28
2019-04-27T15:10:11.639Z,14.28
2019-04-27T15:12:38.355Z,13.45
2019-04-27T15:15:06.827Z,13.45
2019-04-27T15:17:34.267Z,13.40
2019-04-27T15:20:15.659Z,13.43
2019-04-27T15:22:43.052Z,12.70
2019-04-27T15:25:15.244Z,12.30
2019-04-27T15:27:44.994Z,13.10
2019-04-27T15:30:14.374Z,18.40
2019-04-27T15:35:30.312Z,14.13
2019-04-27T15:38:05.008Z,11.90
2019-04-27T15:40:31.987Z,11.53
2019-04-27T15:43:00.535Z,12.70
2019-04-27T15:45:28.577Z,12.10
2019-04-27T15:47:55.839Z,12.68
2019-04-27T15:50:23.429Z,11.55
2019-04-27T15:52:51.465Z,11.08
2019-04-27T15:55:31.705Z,11.15
2019-04-27T15:57:48.745Z,10.35
2019-04-27T16:00:20.883Z,10.58
2019-04-27T16:02:49.290Z,10.63
2019-04-27T16:05:16.979Z,10.95
2019-04-27T16:07:44.252Z,10.60
2019-04-27T16:10:11.081Z,10.85
2019-04-27T16:12:38.995Z,10.82
2019-04-27T16:15:08.101Z,10.98
2019-04-27T16:17:34.966Z,11.08
2019-04-27T16:20:01.916Z,11.38
2019-04-27T16:22:28.873Z,10.28
2019-04-27T16:24:55.815Z,10.15
2019-04-27T16:27:25.805Z,10.78
2019-04-27T16:30:09.823Z,11.00
2019-04-27T16:32:32.914Z,10.05
2019-04-27T16:34:59.896Z,9.90
2019-04-27T16:37:28.586Z,9.68
2019-04-27T16:39:55.855Z,9.45
2019-04-27T16:42:22.728Z,9.20
2019-04-27T16:44:53.118Z,9.75
2019-04-27T16:47:24.150Z,9.63
2019-04-27T16:49:48.333Z,9.95
2019-04-27T16:52:16.107Z,11.48
2019-04-27T16:54:44.210Z,11.45
2019-04-27T16:57:11.171Z,10.98
2019-04-27T16:59:44.158Z,10.00
2019-04-27T17:02:08.260Z,11.90
2019-04-27T17:04:35.288Z,10.63
2019-04-27T17:07:03.425Z,10.90
2019-04-27T17:09:30.280Z,11.73
2019-04-27T17:11:59.279Z,11.08
2019-04-27T17:14:34.796Z,10.38
2019-04-27T17:17:08.110Z,10.50
2019-04-27T17:19:39.997Z,10.28
2019-04-27T17:22:04.416Z,10.82
2019-04-27T17:24:42.257Z,10.18
2019-04-27T17:27:06.121Z,10.60
2019-04-27T17:29:34.794Z,10.65
2019-04-27T17:32:02.128Z,11.43
2019-04-27T17:34:29.094Z,12.00
2019-04-27T17:36:58.836Z,12.03
2019-04-27T17:39:25.523Z,11.45
2019-04-27T17:41:52.997Z,11.80
2019-04-27T17:44:23.193Z,11.48
2019-04-27T17:46:51.242Z,12.07
2019-04-27T17:49:18.894Z,13.03
2019-04-27T17:51:45.803Z,11.73
2019-04-27T17:54:12.769Z,11.45
2019-04-27T17:56:48.141Z,12.40
2019-04-27T17:59:10.242Z,12.65
2019-04-27T18:01:36.740Z,12.87
2019-04-27T18:04:06.436Z,11.93
2019-04-27T18:06:45.031Z,12.25
2019-04-27T18:09:13.886Z,12.65
2019-04-27T18:11:40.639Z,13.75
2019-04-27T18:14:11.192Z,13.65
2019-04-27T18:16:37.950Z,14.25
2019-04-27T18:19:09.798Z,14.43
2019-04-27T18:21:38.555Z,13.88
2019-04-27T18:24:08.637Z,14.23
2019-04-27T18:26:49.297Z,14.85
2019-04-27T18:29:14.743Z,14.95
2019-04-27T18:31:41.589Z,14.43
2019-04-27T18:34:14.836Z,15.75
2019-04-27T18:36:37.942Z,15.65
2019-04-27T18:39:10.469Z,15.30
2019-04-27T18:41:37.687Z,16.27
2019-04-27T18:44:06.260Z,16.62
2019-04-27T18:46:38.451Z,17.15
2019-04-27T18:49:08.944Z,16.42
2019-04-27T18:51:40.587Z,16.87
2019-04-27T18:54:08.158Z,16.65
2019-04-27T18:56:38.610Z,17.48
2019-04-27T18:59:03.832Z,19.52
2019-04-27T19:01:30.696Z,20.32
2019-04-27T19:03:58.591Z,21.62
2019-04-27T19:06:25.867Z,20.62
2019-04-27T19:08:52.835Z,21.73
2019-04-27T19:11:19.602Z,21.95
2019-04-27T19:13:48.734Z,20.20
2019-04-27T19:16:15.747Z,21.60
2019-04-27T19:18:43.274Z,21.07
2019-04-27T19:21:23.365Z,21.40
2019-04-27T19:23:50.335Z,20.88
2019-04-27T19:32:04.872Z,20.95
2019-04-27T19:34:31.700Z,20.12
2019-04-27T19:36:59.274Z,21.57
2019-04-27T19:39:26.341Z,23.75
2019-04-27T19:42:00.231Z,25.52
2019-04-27T19:44:22.402Z,35.58
2019-04-27T19:46:49.468Z,33.95
2019-04-27T19:49:16.326Z,37.58
2019-04-27T19:51:43.171Z,36.83
2019-04-27T19:54:10.020Z,38.95
2019-04-27T19:56:38.356Z,37.42
2019-04-27T19:59:08.941Z,38.30
2019-04-27T20:01:38.338Z,39.70
2019-04-27T20:04:08.634Z,37.90
2019-04-27T20:06:35.798Z,30.23
2019-04-27T20:12:17.848Z,30.02
2019-04-27T20:14:56.831Z,27.85
2019-04-27T20:17:48.089Z,21.20
2019-04-27T20:20:15.943Z,19.00
2019-04-27T20:22:42.827Z,18.48
2019-04-27T20:25:11.258Z,16.77
2019-04-27T20:27:45.954Z,17.50
2019-04-27T20:30:21.074Z,16.48
2019-04-27T20:32:48.064Z,16.10
2019-04-27T20:35:15.032Z,16.70
2019-04-27T20:38:01.721Z,15.40
2019-04-27T20:40:28.735Z,14.43
2019-04-27T20:42:55.680Z,15.18
2019-04-27T20:45:22.532Z,14.83
2019-04-27T20:47:52.397Z,15.20
2019-04-27T20:50:17.976Z,15.10
2019-04-27T20:52:46.760Z,14.03
2019-04-27T20:55:13.508Z,14.93
2019-04-27T20:57:41.681Z,15.32
2019-04-27T21:00:11.743Z,14.55
2019-04-27T21:02:54.057Z,15.25
2019-04-27T21:05:40.982Z,14.93
2019-04-27T21:08:11.884Z,15.20
2019-04-27T21:11:01.563Z,14.40
2019-04-27T21:13:28.613Z,15.28
2019-04-27T21:15:55.335Z,14.65
2019-04-27T21:18:22.095Z,14.38
2019-04-27T21:20:49.033Z,14.85
2019-04-27T21:23:15.991Z,14.33
2019-04-27T21:25:42.999Z,13.85
2019-04-27T21:28:17.955Z,14.63
2019-04-27T21:30:38.630Z,15.08
2019-04-27T21:33:05.380Z,15.45
2019-04-27T21:35:34.131Z,13.78
2019-04-27T21:38:03.108Z,14.93
2019-04-27T21:40:30.701Z,14.50
2019-04-27T21:42:57.953Z,13.98
2019-04-27T21:45:24.799Z,13.68
2019-04-27T21:47:52.013Z,13.10
2019-04-27T21:50:20.604Z,13.25
2019-04-27T21:52:49.567Z,13.72
2019-04-27T21:55:18.324Z,13.60
2019-04-27T21:57:45.060Z,13.62
2019-04-27T22:00:51.325Z,12.47
2019-04-27T22:03:21.980Z,12.78
2019-04-27T22:05:48.768Z,12.75
2019-04-27T22:08:15.504Z,12.58
2019-04-27T22:10:42.367Z,12.25
2019-04-27T22:13:09.147Z,13.20
2019-04-27T22:15:36.095Z,12.25
2019-04-27T22:18:02.965Z,11.45
2019-04-27T22:20:32.435Z,12.20
2019-04-27T22:23:07.197Z,11.33
2019-04-27T22:25:36.011Z,11.73
2019-04-27T22:28:03.408Z,11.85
2019-04-27T22:30:31.192Z,11.10
2019-04-27T22:32:59.184Z,11.93
2019-04-27T22:35:26.622Z,12.03
2019-04-27T22:37:53.468Z,11.73
2019-04-27T22:43:35.535Z,12.00
2019-04-27T22:46:03.477Z,10.75
2019-04-27T22:48:31.392Z,11.08
2019-04-27T22:50:58.989Z,11.70
2019-04-27T22:53:25.844Z,11.28
2019-04-27T22:56:13.523Z,11.15
2019-04-27T22:58:56.959Z,11.78
2019-04-27T23:04:13.678Z,11.90
2019-04-27T23:06:41.868Z,12.30
2019-04-27T23:09:09.543Z,12.17
2019-04-27T23:11:38.175Z,11.85
2019-04-27T23:14:18.620Z,12.05
2019-04-27T23:19:32.836Z,12.13
2019-04-27T23:22:00.771Z,12.43
2019-04-27T23:24:27.885Z,12.03
2019-04-27T23:26:54.759Z,12.23
2019-04-27T23:29:21.632Z,12.60
2019-04-27T23:31:50.471Z,12.73
2019-04-27T23:34:17.285Z,12.33
2019-04-27T23:36:44.409Z,12.70
2019-04-27T23:39:11.867Z,12.53
2019-04-27T23:41:38.859Z,12.53
2019-04-27T23:44:05.706Z,12.53
2019-04-27T23:46:32.632Z,13.45
2019-04-27T23:49:01.405Z,12.43
2019-04-27T23:51:39.375Z,12.58
2019-04-27T23:54:06.322Z,12.63
2019-04-27T23:56:33.177Z,12.37
2019-04-27T23:59:00.008Z,11.83
